createdAt,value
2019-01-12T00:02:53.905Z,6.92
2019-01-12T00:07:57.433Z,6.86
2019-01-12T00:13:00.881Z,6.93
2019-01-12T00:18:04.618Z,6.84
2019-01-12T00:23:08.062Z,6.83
2019-01-12T00:28:11.527Z,6.75
2019-01-12T00:33:15.008Z,6.76
2019-01-12T00:38:18.464Z,6.77
2019-01-12T00:43:21.907Z,6.74
2019-01-12T00:48:25.363Z,6.79
2019-01-12T00:53:28.994Z,6.72
2019-01-12T00:58:32.776Z,6.76
2019-01-12T01:03:38.193Z,6.74
2019-01-12T01:08:41.339Z,6.71
2019-01-12T01:13:44.862Z,6.71
2019-01-12T01:18:48.403Z,6.67
2019-01-12T01:23:51.915Z,6.65
2019-01-12T01:28:55.355Z,6.63
2019-01-12T01:33:58.824Z,6.65
2019-01-12T01:39:02.259Z,6.65
2019-01-12T01:44:06.082Z,6.66
2019-01-12T01:49:09.684Z,6.68
2019-01-12T01:54:13.289Z,6.71
2019-01-12T01:59:16.723Z,6.65
2019-01-12T02:04:20.356Z,6.62
2019-01-12T02:09:23.799Z,6.62
2019-01-12T02:14:27.267Z,6.63
2019-01-12T02:19:30.699Z,6.62
2019-01-12T02:24:34.142Z,6.59
2019-01-12T02:29:37.597Z,6.56
2019-01-12T02:34:41.457Z,6.58
2019-01-12T02:39:44.991Z,6.59
2019-01-12T02:44:48.410Z,6.56
2019-01-12T02:49:51.950Z,6.57
2019-01-12T02:54:56.016Z,6.52
2019-01-12T02:59:59.739Z,6.53
2019-01-12T03:05:03.608Z,6.52
2019-01-12T03:10:10.060Z,6.53
2019-01-12T03:15:17.538Z,6.51
2019-01-12T03:20:21.056Z,6.52
2019-01-12T03:25:24.559Z,6.52
2019-01-12T03:30:28.000Z,6.51
2019-01-12T03:35:31.424Z,6.48
2019-01-12T03:40:35.047Z,6.45
2019-01-12T03:45:41.337Z,6.45
2019-01-12T03:50:44.758Z,6.51
2019-01-12T03:55:48.204Z,6.54
2019-01-12T04:00:51.658Z,6.50
2019-01-12T04:05:55.151Z,6.51
2019-01-12T04:10:58.649Z,6.50
2019-01-12T04:16:02.433Z,6.46
2019-01-12T04:21:06.158Z,6.42
2019-01-12T04:26:09.634Z,6.47
2019-01-12T04:31:13.251Z,6.41
2019-01-12T04:36:16.782Z,6.39
2019-01-12T04:41:20.228Z,6.37
2019-01-12T04:46:23.706Z,6.40
2019-01-12T04:51:27.544Z,6.41
2019-01-12T04:56:30.986Z,6.45
2019-01-12T05:01:34.431Z,6.39
2019-01-12T05:06:37.895Z,6.34
2019-01-12T05:11:41.329Z,6.42
2019-01-12T05:16:44.759Z,6.42
2019-01-12T05:21:48.281Z,6.42
2019-01-12T05:26:51.767Z,6.37
2019-01-12T05:31:55.573Z,6.34
2019-01-12T05:36:59.034Z,6.31
2019-01-12T05:42:02.796Z,6.29
2019-01-12T05:47:06.241Z,6.32
2019-01-12T05:52:09.687Z,6.34
2019-01-12T05:57:13.127Z,6.33
2019-01-12T06:02:16.611Z,6.33
2019-01-12T06:07:20.080Z,6.35
2019-01-12T06:12:23.573Z,6.36
2019-01-12T06:17:27.468Z,6.35
2019-01-12T06:22:30.925Z,6.35
2019-01-12T06:27:34.381Z,6.33
2019-01-12T06:32:37.837Z,6.32
2019-01-12T06:37:41.266Z,6.29
2019-01-12T06:42:44.769Z,6.26
2019-01-12T06:47:48.212Z,6.19
2019-01-12T06:52:51.658Z,6.17
2019-01-12T06:57:55.084Z,6.09
2019-01-12T07:02:58.526Z,6.06
2019-01-12T07:08:01.980Z,6.11
2019-01-12T07:13:05.421Z,6.09
2019-01-12T07:18:09.116Z,6.08
2019-01-12T07:23:12.560Z,6.10
2019-01-12T07:28:16.014Z,6.12
2019-01-12T07:33:19.452Z,6.12
2019-01-12T07:38:22.887Z,6.05
2019-01-12T07:43:26.330Z,6.09
2019-01-12T07:48:29.802Z,6.06
2019-01-12T07:53:33.230Z,6.04
2019-01-12T07:58:36.690Z,6.05
2019-01-12T08:03:40.194Z,6.01
2019-01-12T08:08:43.633Z,6.01
2019-01-12T08:13:47.091Z,6.06
2019-01-12T08:18:50.522Z,6.05
2019-01-12T08:23:53.977Z,6.06
2019-01-12T08:28:57.410Z,6.10
2019-01-12T08:34:00.863Z,6.15
2019-01-12T08:39:06.390Z,6.15
2019-01-12T08:44:10.125Z,6.11
2019-01-12T08:49:13.574Z,6.09
2019-01-12T08:54:17.034Z,6.05
2019-01-12T08:59:22.122Z,6.05
2019-01-12T09:04:25.544Z,6.11
2019-01-12T09:09:28.977Z,6.14
2019-01-12T09:14:32.417Z,6.14
2019-01-12T09:19:35.852Z,6.14
2019-01-12T09:24:39.288Z,6.19
2019-01-12T09:29:42.732Z,6.17
2019-01-12T09:34:46.246Z,6.13
2019-01-12T09:39:49.807Z,6.10
2019-01-12T09:44:53.183Z,6.19
2019-01-12T09:49:56.616Z,6.16
2019-01-12T09:55:00.042Z,6.22
2019-01-12T10:00:05.739Z,6.23
2019-01-12T10:05:09.603Z,6.28
2019-01-12T10:10:19.832Z,6.24
2019-01-12T10:15:23.491Z,6.22
2019-01-12T10:20:29.990Z,6.22
2019-01-12T10:25:33.504Z,6.20
2019-01-12T10:30:36.938Z,6.23
2019-01-12T10:35:40.387Z,6.23
2019-01-12T10:40:44.451Z,6.28
2019-01-12T10:45:47.883Z,6.20
2019-01-12T10:50:51.336Z,6.24
2019-01-12T10:55:54.784Z,6.30
2019-01-12T11:00:58.226Z,6.28
2019-01-12T11:06:01.679Z,6.28
2019-01-12T11:11:05.678Z,6.25
2019-01-12T11:16:09.117Z,6.30
2019-01-12T11:21:12.651Z,6.22
2019-01-12T11:26:16.101Z,6.30
2019-01-12T11:31:20.014Z,6.25
2019-01-12T11:36:23.576Z,6.31
2019-01-12T11:41:26.999Z,6.32
2019-01-12T11:46:30.454Z,6.30
2019-01-12T11:51:33.970Z,6.38
2019-01-12T11:56:37.400Z,6.36
2019-01-12T12:01:40.836Z,6.44
2019-01-12T12:06:44.292Z,6.39
2019-01-12T12:11:47.738Z,6.40
2019-01-12T12:16:51.189Z,6.42
2019-01-12T12:21:54.637Z,6.40
2019-01-12T12:26:58.079Z,6.42
2019-01-12T12:32:01.524Z,6.40
2019-01-12T12:37:04.970Z,6.42
2019-01-12T12:42:08.407Z,6.45
2019-01-12T12:47:11.924Z,6.45
2019-01-12T12:52:15.417Z,6.47
2019-01-12T12:57:18.881Z,6.50
2019-01-12T13:02:22.326Z,6.56
2019-01-12T13:07:25.753Z,6.56
2019-01-12T13:12:29.379Z,6.57
2019-01-12T13:17:32.833Z,6.66
2019-01-12T13:22:36.275Z,6.63
2019-01-12T13:27:40.168Z,6.67
2019-01-12T13:32:43.748Z,6.72
2019-01-12T13:37:47.777Z,6.65
2019-01-12T13:42:51.225Z,6.69
2019-01-12T13:47:54.835Z,6.69
2019-01-12T13:52:58.298Z,6.67
2019-01-12T13:58:01.719Z,6.72
2019-01-12T14:03:06.423Z,6.76
2019-01-12T14:08:09.855Z,6.70
2019-01-12T14:13:13.290Z,6.73
2019-01-12T14:18:22.615Z,6.76
2019-01-12T14:23:22.128Z,6.75
2019-01-12T14:28:25.537Z,6.81
2019-01-12T14:33:28.993Z,6.80
2019-01-12T14:38:33.899Z,6.83
2019-01-12T14:43:37.459Z,6.81
2019-01-12T14:48:40.870Z,6.88
2019-01-12T14:53:44.284Z,6.80
2019-01-12T14:58:47.742Z,6.81
2019-01-12T15:03:51.194Z,6.78
2019-01-12T15:08:54.625Z,6.79
2019-01-12T15:13:58.055Z,6.84
2019-01-12T15:19:01.490Z,6.81
2019-01-12T15:24:05.133Z,6.86
2019-01-12T15:29:08.628Z,6.85
2019-01-12T15:34:12.002Z,6.89
2019-01-12T15:39:15.446Z,6.89
2019-01-12T15:44:18.883Z,6.90
2019-01-12T15:49:22.319Z,6.89
2019-01-12T15:54:25.766Z,6.89
2019-01-12T15:59:29.201Z,6.93
2019-01-12T16:04:32.647Z,6.89
2019-01-12T16:09:36.101Z,6.96
2019-01-12T16:14:39.504Z,7.03
2019-01-12T16:19:42.947Z,7.04
2019-01-12T16:24:46.650Z,7.07
2019-01-12T16:29:50.094Z,7.08
2019-01-12T16:34:53.531Z,7.05
2019-01-12T16:39:56.978Z,7.07
2019-01-12T16:45:00.422Z,7.01
2019-01-12T16:50:07.539Z,7.03
2019-01-12T16:55:13.121Z,7.04
2019-01-12T17:00:19.229Z,7.00
2019-01-12T17:05:22.987Z,7.00
2019-01-12T17:10:26.500Z,6.99
2019-01-12T17:15:34.673Z,7.00
2019-01-12T17:20:35.106Z,7.04
2019-01-12T17:25:38.525Z,7.00
2019-01-12T17:30:41.952Z,7.00
2019-01-12T17:35:45.455Z,7.00
2019-01-12T17:40:48.893Z,7.00
2019-01-12T17:45:52.314Z,7.01
2019-01-12T17:50:55.754Z,7.06
2019-01-12T17:55:59.193Z,7.04
2019-01-12T18:01:02.639Z,7.01
2019-01-12T18:06:06.157Z,7.07
2019-01-12T18:11:09.644Z,7.07
2019-01-12T18:16:13.099Z,7.10
2019-01-12T18:21:16.624Z,7.11
2019-01-12T18:26:20.080Z,7.12
2019-01-12T18:31:23.578Z,7.14
2019-01-12T18:36:27.004Z,7.10
2019-01-12T18:41:30.565Z,7.13
2019-01-12T18:46:33.981Z,7.08
2019-01-12T18:51:37.426Z,7.00
2019-01-12T18:56:40.937Z,6.96
2019-01-12T19:01:44.414Z,6.98
2019-01-12T19:06:47.856Z,6.95
2019-01-12T19:11:51.561Z,6.94
2019-01-12T19:16:55.835Z,6.93
2019-01-12T19:22:00.532Z,6.88
2019-01-12T19:27:04.184Z,6.89
2019-01-12T19:32:07.629Z,6.85
2019-01-12T19:37:11.064Z,6.77
2019-01-12T19:42:15.642Z,6.79
2019-01-12T19:47:19.201Z,6.81
2019-01-12T19:52:22.654Z,6.81
2019-01-12T19:57:26.162Z,6.83
2019-01-12T20:02:29.675Z,6.82
2019-01-12T20:07:33.088Z,6.74
2019-01-12T20:12:36.652Z,6.66
2019-01-12T20:17:40.110Z,6.57
2019-01-12T20:22:43.623Z,6.53
2019-01-12T20:27:47.048Z,6.54
2019-01-12T20:33:10.082Z,6.54
2019-01-12T20:38:21.996Z,6.52
2019-01-12T20:43:30.970Z,6.50
2019-01-12T20:48:52.238Z,6.46
2019-01-12T20:54:04.320Z,6.46
2019-01-12T20:59:28.093Z,6.47
2019-01-12T21:04:53.339Z,6.47
2019-01-12T21:10:08.803Z,6.42
2019-01-12T21:15:15.900Z,6.48
2019-01-12T21:20:19.296Z,6.50
2019-01-12T21:25:22.740Z,6.57
2019-01-12T21:30:26.178Z,6.55
2019-01-12T21:35:29.600Z,6.59
2019-01-12T21:40:33.064Z,6.59
2019-01-12T21:45:36.589Z,6.61
2019-01-12T21:50:40.103Z,6.68
2019-01-12T21:55:43.545Z,6.64
2019-01-12T22:00:47.001Z,6.67
2019-01-12T22:05:50.429Z,6.68
2019-01-12T22:10:53.872Z,6.70
2019-01-12T22:15:57.306Z,6.70
2019-01-12T22:21:00.735Z,6.67
2019-01-12T22:26:04.162Z,6.65
2019-01-12T22:31:07.584Z,6.64
2019-01-12T22:36:11.031Z,6.63
2019-01-12T22:41:14.471Z,6.77
2019-01-12T22:46:17.901Z,6.77
2019-01-12T22:51:21.389Z,6.78
2019-01-12T22:56:24.845Z,6.78
2019-01-12T23:01:31.423Z,6.82
2019-01-12T23:06:37.735Z,6.83
2019-01-12T23:11:41.184Z,6.80
2019-01-12T23:16:44.618Z,6.76
2019-01-12T23:21:48.359Z,6.80
2019-01-12T23:26:51.794Z,6.82
2019-01-12T23:31:55.285Z,6.77
2019-01-12T23:36:58.725Z,6.82
2019-01-12T23:42:02.179Z,6.86
2019-01-12T23:47:05.634Z,6.85
2019-01-12T23:52:09.061Z,6.84
2019-01-12T23:57:12.549Z,6.86
